Time;durP1;ratioP1;P1;durP2;ratioP2;P2;SDS_P1;SDS_P2;PMS_P1;PMS_P2;Temp;Humidity;BMP_temperature;BMP_pressure;BME280_temperature;BME280_humidity;BME280_pressure;Samples;Min_cycle;Max_cycle;Signal;HPM_P1;HPM_P2
2023/10/12 00:02:09;;;;;;;30.08;19.90;;;;;;;16.42;100.00;101070.06;5047641;28;20039;-64
2023/10/12 00:04:50;;;;;;;29.08;19.98;;;;;;;16.42;100.00;101069.25;5055254;28;20028;-64
2023/10/12 00:07:16;;;;;;;27.02;19.60;;;;;;;16.40;100.00;101082.72;5062490;28;20052;-63
2023/10/12 00:09:48;;;;;;;27.83;20.23;;;;;;;16.36;100.00;101080.63;5071560;28;20028;-64
2023/10/12 00:12:23;;;;;;;27.10;20.60;;;;;;;16.36;100.00;101071.44;5063798;28;20476;-63
2023/10/12 00:14:49;;;;;;;28.85;20.52;;;;;;;16.37;100.00;101087.84;5060651;28;20033;-64
2023/10/12 00:17:16;;;;;;;28.95;21.40;;;;;;;16.34;100.00;101096.06;5055034;28;20039;-64
2023/10/12 00:19:41;;;;;;;27.85;20.40;;;;;;;16.32;100.00;101096.44;5061461;28;20086;-65
2023/10/12 00:22:11;;;;;;;31.65;22.08;;;;;;;16.29;100.00;101087.91;5053109;28;20044;-64
2023/10/12 00:24:38;;;;;;;29.67;21.58;;;;;;;16.26;100.00;101094.97;5065452;28;20078;-64
2023/10/12 00:27:05;;;;;;;29.15;21.90;;;;;;;16.26;100.00;101083.81;5061852;28;20376;-64
2023/10/12 00:29:31;;;;;;;29.40;21.63;;;;;;;16.23;100.00;101078.91;5064578;28;20028;-64
2023/10/12 00:31:58;;;;;;;31.38;22.60;;;;;;;16.21;100.00;101084.81;5053395;28;20029;-63
2023/10/12 00:34:23;;;;;;;33.35;22.55;;;;;;;16.20;100.00;101093.53;5053206;28;20025;-64
2023/10/12 00:36:52;;;;;;;30.60;22.65;;;;;;;16.18;100.00;101099.47;5067861;28;20021;-64
2023/10/12 00:39:20;;;;;;;30.23;23.35;;;;;;;16.16;100.00;101092.56;5058606;28;20039;-64
2023/10/12 00:41:46;;;;;;;30.45;23.17;;;;;;;16.14;100.00;101104.09;5066659;28;20079;-63
2023/10/12 00:44:18;;;;;;;30.25;23.77;;;;;;;16.10;100.00;101099.53;5052781;28;20515;-63
2023/10/12 00:47:06;;;;;;;32.13;22.58;;;;;;;16.08;100.00;101108.25;5057508;28;20050;-64
2023/10/12 00:49:34;;;;;;;29.90;23.10;;;;;;;16.06;100.00;101113.34;5055617;28;20033;-64
2023/10/12 00:52:08;;;;;;;32.08;23.60;;;;;;;16.02;100.00;101126.31;5058806;28;20021;-64
2023/10/12 00:57:02;;;;;;;33.33;24.98;;;;;;;15.98;100.00;101128.16;5067689;28;20072;-64
2023/10/12 00:59:34;;;;;;;31.52;24.33;;;;;;;15.97;100.00;101124.53;5056741;28;20029;-64
2023/10/12 01:02:12;;;;;;;31.63;23.95;;;;;;;15.96;100.00;101131.28;5057836;28;20025;-65
2023/10/12 01:04:43;;;;;;;32.80;25.15;;;;;;;15.90;100.00;101127.88;5071154;28;20507;-63
2023/10/12 01:07:11;;;;;;;33.22;25.63;;;;;;;15.89;100.00;101123.44;5063399;28;20039;-64
2023/10/12 01:09:39;;;;;;;34.60;25.23;;;;;;;15.88;100.00;101129.34;5063785;28;20048;-65
2023/10/12 01:12:12;;;;;;;39.05;26.63;;;;;;;15.87;100.00;101128.53;5055415;28;20472;-65
2023/10/12 01:14:42;;;;;;;32.40;25.98;;;;;;;15.86;100.00;101121.31;5052396;28;20044;-65
2023/10/12 01:17:08;;;;;;;33.13;26.25;;;;;;;15.82;100.00;101128.66;5052603;28;20116;-64
2023/10/12 01:19:44;;;;;;;35.42;25.75;;;;;;;15.81;100.00;101123.44;5052329;28;20069;-64
2023/10/12 01:22:13;;;;;;;34.50;26.77;;;;;;;15.80;100.00;101122.63;5072105;28;20056;-64
2023/10/12 01:24:58;;;;;;;33.03;25.48;;;;;;;15.77;100.00;101120.50;5054648;28;20032;-63
2023/10/12 01:27:25;;;;;;;32.72;26.63;;;;;;;15.77;100.00;101130.84;5072415;28;20058;-64
2023/10/12 01:29:58;;;;;;;32.50;25.75;;;;;;;15.75;100.00;101147.91;5054860;28;20032;-63
2023/10/12 01:32:27;;;;;;;33.58;27.02;;;;;;;15.74;100.00;101146.25;5062522;28;20021;-64
2023/10/12 01:34:55;;;;;;;34.20;26.27;;;;;;;15.72;100.00;101143.00;5044761;28;20108;-64
2023/10/12 01:37:22;;;;;;;34.22;27.02;;;;;;;15.72;100.00;101137.44;5052325;28;20227;-63
2023/10/12 01:39:56;;;;;;;36.50;27.30;;;;;;;15.71;100.00;101135.81;5048391;28;20025;-64
2023/10/12 01:42:24;;;;;;;34.58;27.02;;;;;;;15.67;100.00;101113.34;5044376;28;20060;-65
2023/10/12 01:44:51;;;;;;;34.92;28.52;;;;;;;15.67;100.00;101095.78;5052330;28;20044;-64
2023/10/12 01:47:16;;;;;;;34.22;28.17;;;;;;;15.66;100.00;101096.91;5051427;28;20052;-65
2023/10/12 01:49:45;;;;;;;34.13;26.65;;;;;;;15.65;100.00;101087.75;5051683;28;20033;-64
2023/10/12 01:52:10;;;;;;;37.03;28.45;;;;;;;15.62;100.00;101077.25;5051296;28;20331;-64
2023/10/12 01:54:42;;;;;;;35.38;28.45;;;;;;;15.61;100.00;101078.41;5051458;28;20029;-62
2023/10/12 01:57:07;;;;;;;34.75;28.15;;;;;;;15.62;100.00;101088.41;5055942;28;20503;-63
2023/10/12 01:59:33;;;;;;;35.10;28.77;;;;;;;15.58;100.00;101084.66;5051814;28;20056;-64
2023/10/12 02:02:13;;;;;;;38.60;29.00;;;;;;;15.55;100.00;101085.34;5056231;28;20169;-64
2023/10/12 02:04:40;;;;;;;36.40;29.30;;;;;;;15.51;100.00;101081.56;5053079;28;20086;-64
2023/10/12 02:07:06;;;;;;;35.90;28.30;;;;;;;15.50;100.00;101089.13;5057298;28;20025;-65
2023/10/12 02:09:34;;;;;;;36.83;28.65;;;;;;;15.48;100.00;101085.03;5059275;28;20025;-65
2023/10/12 02:12:09;;;;;;;37.05;29.75;;;;;;;15.44;100.00;101082.91;5071432;28;20029;-64
2023/10/12 02:14:35;;;;;;;35.75;28.23;;;;;;;15.43;100.00;101102.78;5044393;28;20543;-65
2023/10/12 02:17:02;;;;;;;37.90;30.67;;;;;;;15.43;100.00;101102.78;5062554;28;20108;-65
2023/10/12 02:19:39;;;;;;;37.47;29.13;;;;;;;15.41;100.00;101105.88;5063665;28;20480;-64
2023/10/12 02:22:04;;;;;;;37.33;29.73;;;;;;;15.40;100.00;101101.44;5020763;28;20049;-64
2023/10/12 02:24:30;;;;;;;39.72;32.10;;;;;;;15.38;100.00;101098.19;5054300;28;20017;-65
2023/10/12 02:27:00;;;;;;;38.03;29.55;;;;;;;15.36;100.00;101100.50;5075532;28;20043;-64
2023/10/12 02:29:25;;;;;;;37.63;31.10;;;;;;;15.34;100.00;101088.84;5051842;28;20025;-64
2023/10/12 02:34:18;;;;;;;39.85;31.50;;;;;;;15.32;100.00;101110.66;5064673;28;20051;-64
2023/10/12 02:39:39;;;;;;;40.05;30.92;;;;;;;15.22;100.00;101092.31;5058496;28;20163;-64
2023/10/12 02:44:50;;;;;;;39.10;30.55;;;;;;;15.25;100.00;101074.13;5062027;28;20029;-64
2023/10/12 02:47:22;;;;;;;37.63;31.02;;;;;;;15.25;100.00;101051.81;5055411;28;20044;-64
2023/10/12 02:49:47;;;;;;;37.88;31.27;;;;;;;15.24;100.00;101078.88;5059452;28;20057;-64
2023/10/12 02:52:14;;;;;;;38.42;30.60;;;;;;;15.25;100.00;101080.53;5050604;28;20060;-64
2023/10/12 02:54:50;;;;;;;38.03;31.27;;;;;;;15.24;100.00;101080.84;5058701;28;20029;-64
2023/10/12 02:57:25;;;;;;;37.72;30.25;;;;;;;15.22;100.00;101080.34;5069869;28;20032;-65
2023/10/12 03:00:02;;;;;;;37.67;31.20;;;;;;;15.17;100.00;101061.03;5054259;28;20021;-64
2023/10/12 03:02:33;;;;;;;39.60;32.75;;;;;;;15.13;100.00;101083.16;5044689;28;20511;-64
2023/10/12 03:05:06;;;;;;;41.75;33.35;;;;;;;15.07;100.00;101065.81;5050642;28;20491;-64
2023/10/12 03:07:35;;;;;;;40.67;32.80;;;;;;;15.06;100.00;101071.72;5038872;28;20035;-64
2023/10/12 03:10:06;;;;;;;36.95;30.48;;;;;;;15.07;100.00;101067.75;5051392;28;20040;-63
2023/10/12 03:12:34;;;;;;;39.67;32.03;;;;;;;15.04;100.00;101055.31;5059087;28;20112;-63
2023/10/12 03:15:01;;;;;;;44.05;33.25;;;;;;;15.00;100.00;101036.81;5050618;28;20017;-63
2023/10/12 03:17:28;;;;;;;39.80;31.80;;;;;;;14.98;100.00;101049.09;5052337;28;20048;-64
2023/10/12 03:19:56;;;;;;;40.13;32.08;;;;;;;14.95;100.00;101060.09;5050820;28;20341;-63
2023/10/12 03:22:31;;;;;;;42.08;33.50;;;;;;;14.91;100.00;101057.16;5023611;28;20100;-64
2023/10/12 03:25:05;;;;;;;40.90;32.47;;;;;;;14.92;100.00;101071.91;5027682;28;20044;-63
2023/10/12 03:27:33;;;;;;;;;;;;;;;14.93;100.00;101074.38;5049668;28;20116;-63
2023/10/12 03:30:06;;;;;;;39.03;31.83;;;;;;;14.87;100.00;101061.75;5028663;28;19917;-64
2023/10/12 03:32:32;;;;;;;40.13;31.83;;;;;;;14.89;100.00;101067.00;5012226;28;20060;-63
2023/10/12 03:34:57;;;;;;;38.53;32.15;;;;;;;14.87;100.00;101074.84;5035176;28;20029;-63
2023/10/12 03:40:48;;;;;;;38.85;31.38;;;;;;;14.79;100.00;101080.13;5039154;28;20158;-63
2023/10/12 03:42:55;;;;;;;39.40;30.42;;;;;;;14.77;100.00;101071.25;5049334;28;20122;-64
2023/10/12 03:45:24;;;;;;;36.75;30.33;;;;;;;14.78;100.00;101066.53;5045457;28;20530;-65
2023/10/12 03:48:03;;;;;;;41.10;31.00;;;;;;;14.78;100.00;101072.91;5029668;28;20021;-63
2023/10/12 03:50:33;;;;;;;37.40;29.33;;;;;;;14.76;100.00;101069.63;5012316;28;20103;-64
2023/10/12 03:52:59;;;;;;;37.90;30.67;;;;;;;14.78;100.00;101083.25;5044164;28;20087;-64
2023/10/12 03:55:26;;;;;;;36.17;29.73;;;;;;;14.78;100.00;101094.38;5031695;28;20017;-63
2023/10/12 03:58:07;;;;;;;36.53;29.63;;;;;;;14.74;100.00;101091.41;5037384;28;20037;-64
2023/10/12 04:00:40;;;;;;;38.13;29.15;;;;;;;14.77;100.00;101101.09;5031471;28;20033;-64
2023/10/12 04:03:12;;;;;;;35.83;28.53;;;;;;;14.75;100.00;101097.81;5042328;28;20114;-64
2023/10/12 04:05:51;;;;;;;37.90;27.48;;;;;;;14.75;100.00;101095.84;5011425;28;20371;-64
2023/10/12 04:08:37;;;;;;;35.03;27.73;;;;;;;14.74;100.00;101093.38;5015321;28;20053;-64
2023/10/12 04:19:02;;;;;;;34.13;28.00;;;;;;;14.69;100.00;101122.22;5040999;28;20541;-65
2023/10/12 04:21:33;;;;;;;34.97;26.75;;;;;;;14.70;100.00;101109.09;5044582;28;20087;-65
2023/10/12 04:26:39;;;;;;;35.80;26.90;;;;;;;14.65;100.00;101107.28;5045960;28;20044;-64
2023/10/12 04:29:10;;;;;;;36.70;27.42;;;;;;;14.63;100.00;101110.38;5043677;28;20025;-64
2023/10/12 04:34:10;;;;;;;32.67;25.73;;;;;;;14.59;100.00;101095.50;5029894;28;20516;-64
2023/10/12 04:41:38;;;;;;;34.60;26.50;;;;;;;14.57;100.00;101111.72;5035284;28;20118;-64
2023/10/12 04:47:13;;;;;;;33.63;26.35;;;;;;;14.57;100.00;101117.28;5021026;28;20129;-64
2023/10/12 04:52:16;;;;;;;32.83;25.35;;;;;;;14.56;100.00;101125.94;5026064;28;20056;-63
2023/10/12 04:54:59;;;;;;;35.63;27.55;;;;;;;14.57;100.00;101124.78;5045939;28;20033;-63
2023/10/12 04:57:33;;;;;;;35.03;28.75;;;;;;;14.56;100.00;101106.44;5048525;28;20036;-63
2023/10/12 05:02:55;;;;;;;33.22;27.10;;;;;;;14.59;100.00;101122.50;5036760;28;20056;-66
2023/10/12 05:07:55;;;;;;;33.13;25.67;;;;;;;14.64;100.00;101131.53;5039910;28;20572;-63
2023/10/12 05:10:26;;;;;;;31.75;25.15;;;;;;;14.65;100.00;101126.75;5031607;28;20155;-65
2023/10/12 05:12:57;;;;;;;34.08;27.73;;;;;;;14.60;100.00;101135.28;5038820;28;20028;-63
2023/10/12 05:15:26;;;;;;;33.05;26.77;;;;;;;14.64;100.00;101139.06;5051484;28;20047;-64
2023/10/12 05:17:51;;;;;;;32.53;26.02;;;;;;;14.65;100.00;101147.09;5021985;28;20055;-64
2023/10/12 05:20:22;;;;;;;34.38;27.40;;;;;;;14.64;100.00;101145.44;5033433;28;20068;-66
2023/10/12 05:22:47;;;;;;;31.25;25.92;;;;;;;14.64;100.00;101148.22;5043537;28;20057;-65
2023/10/12 05:25:12;;;;;;;35.22;26.42;;;;;;;14.63;100.00;101141.00;5038639;28;20033;-65
2023/10/12 05:28:02;;;;;;;34.78;26.25;;;;;;;14.64;100.00;101141.84;5043565;28;20471;-64
2023/10/12 05:30:27;;;;;;;33.40;25.05;;;;;;;14.67;100.00;101155.13;5043138;28;20454;-65
2023/10/12 05:32:56;;;;;;;34.70;27.17;;;;;;;14.65;100.00;101146.25;5051391;28;20097;-65
2023/10/12 05:35:46;;;;;;;33.38;25.92;;;;;;;14.64;100.00;101151.00;5043510;28;20033;-64
2023/10/12 05:38:07;;;;;;;32.95;24.83;;;;;;;14.63;100.00;101162.50;5028948;28;20069;-63
2023/10/12 05:40:35;;;;;;;32.10;25.55;;;;;;;14.64;100.00;101161.34;5030085;28;20118;-65
2023/10/12 05:43:00;;;;;;;35.20;25.13;;;;;;;14.65;100.00;101163.78;5038324;28;20036;-65
2023/10/12 05:45:31;;;;;;;32.13;23.65;;;;;;;14.64;100.00;101153.00;5041520;28;20041;-65
2023/10/12 05:47:56;;;;;;;32.60;24.65;;;;;;;14.64;100.00;101156.59;5030862;28;20036;-66
2023/10/12 05:50:26;;;;;;;31.52;24.33;;;;;;;14.64;100.00;101161.34;5032677;28;20030;-65
2023/10/12 05:52:52;;;;;;;32.58;25.23;;;;;;;14.66;100.00;101165.47;5030837;28;20045;-66
2023/10/12 05:55:21;;;;;;;36.70;23.95;;;;;;;14.68;100.00;101175.47;5030780;28;20025;-65
2023/10/12 05:57:48;;;;;;;31.95;23.52;;;;;;;14.68;100.00;101176.28;5032987;28;20068;-64
2023/10/12 06:00:18;;;;;;;33.47;24.33;;;;;;;14.69;100.00;101177.91;5037291;28;20025;-66
2023/10/12 06:02:45;;;;;;;32.72;22.95;;;;;;;14.69;100.00;101186.25;5020085;28;20397;-65
2023/10/12 06:05:12;;;;;;;30.23;22.98;;;;;;;14.72;100.00;101184.78;5012082;28;20056;-66
2023/10/12 06:07:37;;;;;;;31.50;22.85;;;;;;;14.69;100.00;101182.66;5033670;28;20029;-66
2023/10/12 06:10:09;;;;;;;32.70;23.08;;;;;;;14.69;100.00;101182.66;5036111;28;20041;-66
2023/10/12 06:12:35;;;;;;;32.17;23.02;;;;;;;14.68;100.00;101187.41;5045722;28;20028;-65
2023/10/12 06:15:00;;;;;;;32.28;22.92;;;;;;;14.69;100.00;101191.84;5038575;28;20422;-67
2023/10/12 06:17:39;;;;;;;31.33;23.08;;;;;;;14.69;100.00;101191.84;5051268;28;20107;-66
2023/10/12 06:20:13;;;;;;;31.10;22.35;;;;;;;14.71;100.00;101191.50;5033730;28;20025;-66
2023/10/12 06:22:38;;;;;;;29.95;22.02;;;;;;;14.74;100.00;101202.00;5051465;28;20052;-68
2023/10/12 06:25:11;;;;;;;31.10;22.05;;;;;;;14.70;100.00;101196.25;5050158;28;20489;-65
2023/10/12 06:27:37;;;;;;;29.88;22.52;;;;;;;14.73;100.00;101200.34;5049707;28;20025;-67
2023/10/12 06:30:16;;;;;;;30.45;22.23;;;;;;;14.72;100.00;101202.31;5049479;28;20029;-68
2023/10/12 06:32:42;;;;;;;29.88;21.45;;;;;;;14.72;100.00;101198.72;5030970;28;20021;-66
2023/10/12 06:37:49;;;;;;;30.70;22.00;;;;;;;14.74;100.00;101202.00;5028963;28;20041;-67
2023/10/12 06:45:47;;;;;;;28.88;20.90;;;;;;;14.71;100.00;101205.41;5030802;28;20360;-66
2023/10/12 06:51:02;;;;;;;29.05;20.85;;;;;;;14.72;100.00;101207.91;5031643;28;20033;-66
2023/10/12 06:53:36;;;;;;;30.42;21.15;;;;;;;14.70;100.00;101204.63;5037391;28;20038;-67
2023/10/12 06:59:20;;;;;;;30.80;21.30;;;;;;;14.71;100.00;101214.63;5041772;28;20048;-64
2023/10/12 07:04:13;;;;;;;30.05;21.05;;;;;;;14.75;100.00;101214.78;5022630;28;20146;-66
2023/10/12 07:06:48;;;;;;;30.27;21.00;;;;;;;14.77;100.00;101221.66;5050866;28;20025;-66
2023/10/12 07:09:13;;;;;;;30.92;20.63;;;;;;;14.77;100.00;101218.06;5044526;28;20102;-67
2023/10/12 07:11:40;;;;;;;28.75;20.48;;;;;;;14.80;100.00;101220.19;5037091;28;20681;-65
2023/10/12 07:14:06;;;;;;;31.88;19.63;;;;;;;14.78;100.00;101234.44;5029664;28;20029;-64
2023/10/12 07:16:41;;;;;;;30.38;20.33;;;;;;;14.78;100.00;101239.19;5050995;28;20017;-65
2023/10/12 07:19:06;;;;;;;28.83;20.85;;;;;;;14.79;100.00;101249.16;5032270;28;20024;-65
2023/10/12 07:21:31;;;;;;;30.95;21.33;;;;;;;14.75;100.00;101240.66;5048773;28;20059;-65
2023/10/12 07:23:57;;;;;;;30.10;20.40;;;;;;;14.75;100.00;101246.22;5049265;28;20080;-65
2023/10/12 07:26:30;;;;;;;27.67;20.90;;;;;;;14.78;100.00;101250.34;5049362;28;20448;-64
2023/10/12 07:28:56;;;;;;;29.67;21.42;;;;;;;14.76;100.00;101239.50;5049394;28;20028;-67
2023/10/12 07:31:38;;;;;;;28.75;22.17;;;;;;;14.78;100.00;101239.19;5049092;28;20029;-65
2023/10/12 07:34:05;;;;;;;30.02;23.10;;;;;;;14.79;100.00;101251.94;5049036;28;20080;-66
2023/10/12 07:39:27;;;;;;;31.23;21.10;;;;;;;14.74;100.00;101261.28;5050029;28;20112;-66
2023/10/12 07:42:36;;;;;;;30.40;23.50;;;;;;;14.77;100.00;101259.84;5049744;28;20045;-65
2023/10/12 07:44:53;;;;;;;30.38;23.00;;;;;;;14.78;100.00;101253.13;5038260;28;20063;-65
2023/10/12 07:47:19;;;;;;;29.60;22.02;;;;;;;14.79;100.00;101265.88;5028973;28;20041;-67
2023/10/12 07:49:51;;;;;;;29.42;21.25;;;;;;;14.80;100.00;101265.56;5029366;28;20040;-65
2023/10/12 07:57:29;;;;;;;30.10;21.98;;;;;;;14.83;100.00;101266.88;5029616;28;20476;-66
2023/10/12 08:10:48;;;;;;;31.33;23.17;;;;;;;14.88;100.00;101265.91;5034142;28;20057;-66
2023/10/12 08:13:15;;;;;;;29.98;23.13;;;;;;;14.88;100.00;101272.28;5028774;28;20029;-66
2023/10/12 08:24:09;;;;;;;29.70;21.20;;;;;;;14.98;100.00;101285.09;5049285;28;20136;-67
2023/10/12 08:31:46;;;;;;;30.65;21.02;;;;;;;15.05;100.00;101262.31;5039490;28;20109;-67
2023/10/12 08:39:38;;;;;;;31.02;21.88;;;;;;;15.08;100.00;101282.00;5033065;28;20366;-66
2023/10/12 08:42:36;;;;;;;29.25;21.73;;;;;;;15.11;100.00;101280.53;5032989;28;20774;-66
2023/10/12 08:45:15;;;;;;;27.88;13.88;;;;;;;15.15;100.00;101275.94;5035111;28;20037;-67
2023/10/12 08:47:49;;;;;;;27.35;13.15;;;;;;;15.20;100.00;101281.34;5043029;28;20029;-68
2023/10/12 08:52:51;;;;;;;25.88;12.68;;;;;;;15.27;100.00;101289.22;5044231;28;20102;-65
2023/10/12 08:55:24;;;;;;;27.40;12.27;;;;;;;15.27;100.00;101289.22;5032073;28;20037;-66
2023/10/12 08:58:20;;;;;;;27.98;12.77;;;;;;;15.27;100.00;101292.00;5033280;28;20462;-67
2023/10/12 09:01:07;;;;;;;27.90;12.88;;;;;;;15.29;100.00;101296.09;5031985;28;20029;-67
2023/10/12 09:03:44;;;;;;;27.98;13.07;;;;;;;15.32;100.00;101289.03;5034577;28;20153;-68
2023/10/12 09:08:57;;;;;;;26.08;13.10;;;;;;;15.29;100.00;101276.59;5033566;28;20125;-68
2023/10/12 09:11:33;;;;;;;28.83;13.48;;;;;;;15.34;100.00;101274.78;5034847;28;20040;-68
2023/10/12 09:13:58;;;;;;;27.98;13.63;;;;;;;15.31;100.00;101267.88;5042548;28;20044;-69
2023/10/12 09:16:26;;;;;;;28.27;14.55;;;;;;;15.33;100.00;101262.81;5043261;28;20025;-67
2023/10/12 09:18:57;;;;;;;30.50;14.93;;;;;;;15.36;100.00;101270.53;5052164;28;20115;-69
2023/10/12 09:21:57;;;;;;;28.25;14.15;;;;;;;15.39;100.00;101278.25;5052624;28;20076;-69
2023/10/12 09:26:55;;;;;;;30.55;15.18;;;;;;;15.54;100.00;101267.72;5052949;28;20037;-69
2023/10/12 09:29:27;;;;;;;28.40;14.60;;;;;;;15.64;100.00;101283.28;5034620;28;20336;-69
2023/10/12 09:32:15;;;;;;;27.98;14.07;;;;;;;15.67;100.00;101294.63;5053380;28;20033;-66
2023/10/12 09:34:47;;;;;;;28.65;15.25;;;;;;;15.66;100.00;101294.94;5036314;28;20029;-66
2023/10/12 09:37:18;;;;;;;29.40;14.65;;;;;;;15.65;100.00;101305.28;5057205;28;20094;-68
2023/10/12 09:39:48;;;;;;;28.55;14.27;;;;;;;15.68;100.00;101290.66;5055933;28;20095;-67
2023/10/12 09:42:30;;;;;;;28.42;15.07;;;;;;;15.79;100.00;101284.72;5059900;28;20029;-70
2023/10/12 09:45:04;;;;;;;30.65;15.45;;;;;;;15.86;100.00;101260.81;5057809;28;20032;-66
2023/10/12 09:47:44;;;;;;;26.95;14.27;;;;;;;16.03;100.00;101261.91;5073599;28;20071;-65
2023/10/12 09:50:13;;;;;;;28.08;15.07;;;;;;;16.14;100.00;101262.38;5073521;28;20036;-66
2023/10/12 09:52:46;;;;;;;29.15;15.25;;;;;;;16.23;100.00;101265.94;5072604;28;20036;-68
2023/10/12 09:55:23;;;;;;;32.00;14.50;;;;;;;16.27;100.00;101264.09;5072211;28;20384;-67
2023/10/12 09:57:50;;;;;;;28.45;13.93;;;;;;;16.34;100.00;101267.19;5072091;28;20494;-67
2023/10/12 10:00:28;;;;;;;28.33;14.85;;;;;;;16.41;100.00;101269.47;5072638;28;20028;-66
2023/10/12 10:02:59;;;;;;;28.83;14.98;;;;;;;16.40;100.00;101267.00;5072617;28;20033;-67
2023/10/12 10:05:51;;;;;;;27.95;14.23;;;;;;;16.38;100.00;101257.00;5072474;28;20314;-67
2023/10/12 10:08:18;;;;;;;27.95;13.90;;;;;;;16.39;100.00;101257.81;5070888;28;20460;-67
2023/10/12 10:10:45;;;;;;;30.63;15.00;;;;;;;16.37;100.00;101251.75;5070909;28;20036;-68
2023/10/12 10:13:39;;;;;;;27.90;14.07;;;;;;;16.32;100.00;101260.31;5052798;28;20476;-67
2023/10/12 10:16:08;;;;;;;29.58;14.30;;;;;;;16.19;100.00;101253.78;5059662;28;20075;-66
2023/10/12 10:19:13;;;;;;;29.65;13.90;;;;;;;16.13;100.00;101261.53;5056443;28;20121;-67
2023/10/12 10:21:49;;;;;;;29.00;14.05;;;;;;;16.04;100.00;101253.22;5064715;28;20044;-69
2023/10/12 10:24:23;;;;;;;28.42;13.57;;;;;;;16.02;100.00;101249.94;5060594;28;20219;-68
2023/10/12 10:26:53;;;;;;;;;;;;;;;16.09;100.00;101251.38;5036617;28;20037;-68
2023/10/12 10:29:18;;;;;;;26.67;13.18;;;;;;;16.01;100.00;101241.91;5035166;28;19921;-68
2023/10/12 10:31:52;;;;;;;27.58;13.27;;;;;;;16.04;100.00;101244.84;5055179;28;20098;-67
2023/10/12 10:34:24;;;;;;;26.90;13.40;;;;;;;16.01;100.00;101242.69;5056562;28;20784;-68
2023/10/12 10:36:53;;;;;;;27.88;13.45;;;;;;;16.05;100.00;101240.91;5042373;28;20075;-68
2023/10/12 10:41:48;;;;;;;27.40;13.32;;;;;;;16.16;100.00;101227.38;5052360;28;20041;-68
2023/10/12 10:44:16;;;;;;;26.55;12.00;;;;;;;16.20;100.00;101231.13;5058278;28;20219;-69
2023/10/12 10:46:48;;;;;;;25.70;12.13;;;;;;;16.22;100.00;101233.59;5048270;28;20036;-69
2023/10/12 10:49:15;;;;;;;25.75;12.90;;;;;;;16.25;100.00;101226.50;5042347;28;20032;-68
2023/10/12 10:51:55;;;;;;;28.45;13.80;;;;;;;16.30;100.00;101232.72;5060931;28;20033;-67
2023/10/12 10:54:21;;;;;;;28.00;13.38;;;;;;;16.35;100.00;101221.34;5048433;28;20021;-67
2023/10/12 10:56:51;;;;;;;26.63;12.90;;;;;;;16.40;100.00;101227.94;5039716;28;20059;-67
2023/10/12 10:59:19;;;;;;;28.95;13.48;;;;;;;16.48;100.00;101218.69;5048759;28;20481;-67
2023/10/12 11:01:48;;;;;;;28.38;13.77;;;;;;;16.58;100.00;101223.88;5049742;28;20029;-66
2023/10/12 11:07:17;;;;;;;28.15;14.55;;;;;;;16.71;100.00;101221.97;5049160;28;20064;-67
2023/10/12 11:12:14;;;;;;;33.67;14.75;;;;;;;16.79;100.00;101226.69;5048810;28;20036;-68
2023/10/12 11:14:52;;;;;;;26.00;13.52;;;;;;;16.76;100.00;101227.38;5048670;28;20198;-67
2023/10/12 11:17:20;;;;;;;27.80;14.10;;;;;;;16.79;100.00;101228.66;5049041;28;20043;-68
2023/10/12 11:19:49;;;;;;;29.13;13.90;;;;;;;16.75;100.00;101220.16;5048783;28;20035;-67
2023/10/12 11:22:14;;;;;;;28.05;14.07;;;;;;;16.73;100.00;101207.66;5049293;28;20069;-67
2023/10/12 11:24:48;;;;;;;26.77;13.60;;;;;;;16.75;100.00;101208.16;5049865;28;20047;-66
2023/10/12 11:27:32;;;;;;;28.02;13.05;;;;;;;16.76;100.00;101207.81;5049652;28;20045;-66
2023/10/12 11:30:00;;;;;;;29.17;15.23;;;;;;;16.77;100.00;101214.22;5049497;28;20514;-65
2023/10/12 11:32:28;;;;;;;29.02;14.00;;;;;;;16.75;100.00;101216.53;5049784;28;20032;-66
2023/10/12 11:34:57;;;;;;;28.73;12.98;;;;;;;16.76;100.00;101212.56;5048616;28;20028;-65
2023/10/12 11:37:25;;;;;;;28.13;13.30;;;;;;;16.75;100.00;101213.72;5049879;28;20032;-66
2023/10/12 11:39:51;;;;;;;28.42;13.35;;;;;;;16.75;100.00;101213.72;5049653;28;20473;-66
2023/10/12 11:42:17;;;;;;;25.75;12.98;;;;;;;16.74;100.00;101209.31;5049248;28;20032;-67
2023/10/12 11:44:48;;;;;;;25.25;12.60;;;;;;;16.76;100.00;101204.19;5049124;28;20040;-65
2023/10/12 11:47:23;;;;;;;27.27;13.45;;;;;;;16.83;100.00;101202.50;5049454;28;20057;-66
2023/10/12 11:49:58;;;;;;;26.98;11.43;;;;;;;16.89;100.00;101194.75;5049213;28;20036;-66
2023/10/12 11:52:32;;;;;;;25.73;11.57;;;;;;;16.91;100.00;101195.19;5049218;28;20111;-66
2023/10/12 11:55:07;;;;;;;23.30;11.40;;;;;;;16.87;100.00;101197.06;5049272;28;20036;-66
2023/10/12 11:57:37;;;;;;;24.40;11.68;;;;;;;16.87;100.00;101193.41;5049185;28;20425;-67
2023/10/12 12:00:26;;;;;;;25.08;10.80;;;;;;;16.83;100.00;101191.34;5049102;28;20421;-67
2023/10/12 12:02:57;;;;;;;26.27;10.85;;;;;;;16.80;100.00;101194.78;5047970;28;20033;-66
2023/10/12 12:05:29;;;;;;;22.42;9.90;;;;;;;16.82;100.00;101200.03;5047836;28;20036;-66
2023/10/12 12:07:59;;;;;;;24.95;11.05;;;;;;;16.79;100.00;101193.16;5047746;28;20029;-66
2023/10/12 12:13:08;;;;;;;25.38;10.82;;;;;;;16.90;100.00;101193.59;5048202;28;20116;-67
2023/10/12 12:15:37;;;;;;;25.65;10.60;;;;;;;16.93;100.00;101206.06;5047921;28;20115;-65
2023/10/12 12:18:09;;;;;;;23.60;10.05;;;;;;;16.92;100.00;101199.63;5048959;28;20029;-66
2023/10/12 12:20:39;;;;;;;25.47;9.93;;;;;;;16.91;100.00;101191.59;5041654;28;20109;-66
2023/10/12 12:23:05;;;;;;;24.52;9.45;;;;;;;16.96;100.00;101192.25;5028699;28;20636;-66
2023/10/12 12:25:34;;;;;;;23.10;9.68;;;;;;;17.05;100.00;101191.34;5028552;28;20021;-66
2023/10/12 12:28:02;;;;;;;24.50;10.80;;;;;;;17.05;100.00;101182.97;5028140;28;20366;-66
2023/10/12 12:30:33;;;;;;;24.20;10.43;;;;;;;17.07;100.00;101175.84;5028620;28;20112;-66
2023/10/12 12:33:03;;;;;;;23.02;9.20;;;;;;;17.09;100.00;101167.97;5027944;28;20076;-65
2023/10/12 12:35:31;;;;;;;22.58;9.57;;;;;;;17.07;100.00;101158.28;5028328;28;20029;-66
2023/10/12 12:38:00;;;;;;;24.45;10.05;;;;;;;17.05;100.00;101152.22;5028568;28;20116;-65
2023/10/12 12:40:38;;;;;;;22.48;10.00;;;;;;;16.97;100.00;101154.75;5029772;28;20049;-65
2023/10/12 12:43:04;;;;;;;24.38;9.95;;;;;;;16.94;100.00;101161.03;5049833;28;20094;-65
2023/10/12 12:45:30;;;;;;;25.50;9.10;;;;;;;16.90;100.00;101162.84;5049975;28;20039;-67
2023/10/12 12:47:56;;;;;;;22.17;9.32;;;;;;;16.92;100.00;101174.47;5067807;28;20040;-68
2023/10/12 12:50:21;;;;;;;25.08;9.63;;;;;;;16.91;100.00;101178.44;5055166;28;20037;-67
2023/10/12 12:52:46;;;;;;;24.75;9.75;;;;;;;16.84;100.00;101167.81;5057941;28;20108;-67
2023/10/12 12:55:16;;;;;;;23.98;9.93;;;;;;;16.81;100.00;101165.69;5057222;28;20033;-67
2023/10/12 12:57:42;;;;;;;23.70;9.38;;;;;;;16.78;100.00;101165.56;5048545;28;20025;-67
2023/10/12 13:00:09;;;;;;;22.63;9.32;;;;;;;16.75;100.00;101149.47;5048417;28;20044;-67
2023/10/12 13:02:36;;;;;;;22.05;9.27;;;;;;;16.79;100.00;101156.84;5048152;28;20073;-67
2023/10/12 13:05:04;;;;;;;21.27;9.00;;;;;;;16.82;100.00;101152.53;5048241;28;20028;-66
2023/10/12 13:07:30;;;;;;;24.42;9.18;;;;;;;16.79;100.00;101165.22;5049284;28;20033;-68
2023/10/12 13:09:56;;;;;;;22.80;9.25;;;;;;;16.80;100.00;101155.69;5050757;28;20040;-67
2023/10/12 13:12:22;;;;;;;24.08;9.18;;;;;;;16.84;100.00;101164.19;5052056;28;20104;-66
2023/10/12 13:14:48;;;;;;;23.73;10.20;;;;;;;16.91;100.00;101167.25;5051238;28;20028;-69